createdAt,value
2022-12-15T00:00:11.648Z,16.73
2022-12-15T00:02:57.307Z,16.07
2022-12-15T00:05:42.603Z,15.43
2022-12-15T00:08:29.090Z,16.33
2022-12-15T00:11:15.000Z,18.03
2022-12-15T00:14:02.426Z,17.17
2022-12-15T00:16:47.852Z,16.13
2022-12-15T00:19:33.360Z,17.27
2022-12-15T00:22:18.862Z,14.90
2022-12-15T00:25:04.298Z,16.07
2022-12-15T00:27:50.004Z,15.63
2022-12-15T00:30:36.846Z,17.40
2022-12-15T00:33:26.960Z,16.77
2022-12-15T00:36:12.301Z,17.67
2022-12-15T00:38:46.172Z,17.77
2022-12-15T00:41:15.598Z,17.23
2022-12-15T00:43:43.765Z,18.50
2022-12-15T00:46:30.937Z,16.13
2022-12-15T00:48:59.318Z,17.07
2022-12-15T00:51:45.103Z,16.20
2022-12-15T00:54:30.613Z,22.80
2022-12-15T00:57:16.109Z,18.30
2022-12-15T01:00:01.492Z,16.70
2022-12-15T01:02:48.524Z,16.47
2022-12-15T01:05:34.040Z,19.37
2022-12-15T01:08:19.483Z,21.77
2022-12-15T01:11:05.041Z,24.40
2022-12-15T01:13:50.546Z,17.83
2022-12-15T01:16:36.305Z,20.63
2022-12-15T01:19:23.241Z,19.47
2022-12-15T01:21:51.124Z,23.30
2022-12-15T01:24:19.001Z,21.60
2022-12-15T01:26:46.852Z,24.50
2022-12-15T01:29:14.736Z,26.70
2022-12-15T01:31:44.107Z,24.80
2022-12-15T01:34:13.457Z,24.30
2022-12-15T01:36:41.319Z,24.90
2022-12-15T01:39:09.407Z,25.90
2022-12-15T01:41:36.289Z,29.47
2022-12-15T01:44:21.658Z,31.27
2022-12-15T01:46:52.646Z,29.90
2022-12-15T01:49:27.590Z,30.27
2022-12-15T01:51:59.794Z,29.80
2022-12-15T01:54:31.010Z,23.77
2022-12-15T01:57:03.388Z,28.17
2022-12-15T01:59:34.459Z,29.87
2022-12-15T02:02:03.355Z,30.40
2022-12-15T02:04:33.648Z,27.53
2022-12-15T02:07:01.505Z,29.07
2022-12-15T02:09:30.038Z,25.67
2022-12-15T02:12:02.769Z,30.53
2022-12-15T02:14:46.769Z,29.20
2022-12-15T02:17:23.293Z,32.40
2022-12-15T02:20:18.901Z,29.50
2022-12-15T02:23:08.127Z,30.63
2022-12-15T02:26:13.361Z,28.30
2022-12-15T02:28:53.461Z,29.07
2022-12-15T02:31:42.966Z,32.97
2022-12-15T02:34:15.689Z,32.83
2022-12-15T02:36:46.355Z,31.37
2022-12-15T02:39:15.048Z,31.97
2022-12-15T02:41:44.871Z,32.40
2022-12-15T02:44:17.873Z,27.90
2022-12-15T02:47:00.105Z,26.30
2022-12-15T02:49:39.358Z,31.50
2022-12-15T02:52:18.950Z,30.53
2022-12-15T02:55:04.553Z,28.10
2022-12-15T02:57:41.921Z,28.00
2022-12-15T03:00:12.053Z,30.53
2022-12-15T03:02:45.523Z,27.60
2022-12-15T03:05:15.051Z,29.40
2022-12-15T03:07:43.678Z,26.80
2022-12-15T03:10:14.492Z,28.43
2022-12-15T03:12:42.437Z,27.20
2022-12-15T03:15:11.149Z,24.50
2022-12-15T03:17:39.014Z,28.47
2022-12-15T03:20:09.883Z,29.10
2022-12-15T03:22:38.152Z,31.20
2022-12-15T03:25:06.794Z,24.93
2022-12-15T03:27:36.030Z,25.37
2022-12-15T03:30:04.528Z,31.17
2022-12-15T03:32:32.451Z,25.80
2022-12-15T03:35:01.032Z,27.80
2022-12-15T03:37:30.275Z,29.17
2022-12-15T03:39:58.142Z,28.77
2022-12-15T03:42:39.909Z,27.73
2022-12-15T03:45:08.452Z,29.63
2022-12-15T03:47:36.294Z,29.93
2022-12-15T03:50:04.449Z,29.97
2022-12-15T03:52:33.641Z,30.90
2022-12-15T03:55:01.491Z,30.70
2022-12-15T03:57:29.303Z,31.63
2022-12-15T03:59:57.144Z,28.70
2022-12-15T04:02:25.070Z,31.80
2022-12-15T04:04:53.084Z,33.33
2022-12-15T04:07:20.903Z,29.17
2022-12-15T04:09:51.173Z,28.53
2022-12-15T04:12:19.018Z,31.03
2022-12-15T04:14:46.856Z,29.50
2022-12-15T04:17:17.462Z,28.57
2022-12-15T04:20:02.986Z,29.03
2022-12-15T04:22:30.839Z,27.63
2022-12-15T04:25:17.873Z,27.80
2022-12-15T04:28:03.150Z,31.90
2022-12-15T04:30:49.818Z,30.10
2022-12-15T04:33:36.238Z,32.00
2022-12-15T04:36:21.945Z,33.70
2022-12-15T04:39:07.432Z,38.30
2022-12-15T04:41:54.067Z,37.00
2022-12-15T04:44:39.647Z,39.90
2022-12-15T04:47:25.229Z,34.50
2022-12-15T04:50:10.732Z,34.43
2022-12-15T04:52:56.126Z,34.50
2022-12-15T04:55:41.561Z,33.63
2022-12-15T04:58:29.363Z,34.53
2022-12-15T05:01:16.527Z,33.00
2022-12-15T05:04:01.895Z,29.80
2022-12-15T05:06:47.169Z,32.00
2022-12-15T05:09:32.649Z,34.10
2022-12-15T05:12:18.043Z,32.90
2022-12-15T05:15:04.827Z,31.23
2022-12-15T05:17:50.295Z,31.70
2022-12-15T05:20:35.932Z,32.30
2022-12-15T05:23:21.321Z,32.13
2022-12-15T05:26:06.723Z,31.57
2022-12-15T05:28:52.180Z,34.97
2022-12-15T05:31:38.836Z,32.10
2022-12-15T05:34:06.936Z,34.50
2022-12-15T05:36:34.820Z,35.10
2022-12-15T05:39:02.751Z,31.93
2022-12-15T05:41:30.689Z,33.93
2022-12-15T05:43:58.525Z,36.10
2022-12-15T05:46:27.823Z,34.63
2022-12-15T05:48:55.689Z,34.47
2022-12-15T05:51:23.593Z,31.73
2022-12-15T05:53:51.534Z,33.03
2022-12-15T05:56:19.474Z,36.03
2022-12-15T05:58:47.311Z,30.90
2022-12-15T06:01:16.799Z,31.03
2022-12-15T06:03:46.069Z,33.23
2022-12-15T06:06:14.783Z,35.77
2022-12-15T06:08:44.028Z,39.83
2022-12-15T06:11:13.602Z,40.70
2022-12-15T06:13:42.394Z,36.70
2022-12-15T06:16:13.728Z,36.20
2022-12-15T06:18:43.293Z,37.93
2022-12-15T06:21:21.046Z,33.57
2022-12-15T06:23:49.134Z,28.50
2022-12-15T06:26:19.499Z,34.63
2022-12-15T06:28:47.557Z,39.43
2022-12-15T06:31:15.724Z,42.27
2022-12-15T06:33:44.034Z,35.77
2022-12-15T06:36:13.794Z,37.07
2022-12-15T06:38:44.110Z,37.20
2022-12-15T06:41:13.869Z,35.93
2022-12-15T06:43:42.340Z,37.87
2022-12-15T06:46:11.064Z,41.63
2022-12-15T06:48:39.643Z,41.00
2022-12-15T06:51:15.095Z,36.30
2022-12-15T06:53:48.924Z,39.10
2022-12-15T06:56:21.831Z,37.90
2022-12-15T06:58:53.574Z,39.43
2022-12-15T07:01:22.461Z,38.80
2022-12-15T07:03:51.229Z,33.80
2022-12-15T07:06:19.785Z,40.33
2022-12-15T07:08:53.280Z,34.90
2022-12-15T07:11:22.519Z,36.50
2022-12-15T07:13:50.749Z,37.63
2022-12-15T07:16:19.453Z,40.47
2022-12-15T07:18:47.414Z,41.07
2022-12-15T07:21:15.676Z,40.40
2022-12-15T07:23:54.725Z,37.60
2022-12-15T07:26:25.999Z,39.57
2022-12-15T07:28:54.487Z,36.60
2022-12-15T07:31:23.811Z,37.67
2022-12-15T07:33:54.367Z,36.73
2022-12-15T07:36:22.251Z,39.97
2022-12-15T07:38:51.214Z,37.90
2022-12-15T07:41:20.507Z,41.13
2022-12-15T07:43:50.280Z,48.90
2022-12-15T07:46:18.909Z,42.03
2022-12-15T07:48:50.927Z,40.43
2022-12-15T07:51:21.089Z,45.57
2022-12-15T07:53:50.480Z,48.37
2022-12-15T07:56:21.914Z,43.80
2022-12-15T07:58:52.206Z,42.80
2022-12-15T08:01:20.327Z,44.90
2022-12-15T08:03:49.857Z,45.20
2022-12-15T08:06:17.867Z,42.57
2022-12-15T08:08:50.719Z,42.60
2022-12-15T08:11:20.569Z,45.40
2022-12-15T08:14:05.748Z,47.17
2022-12-15T08:16:37.790Z,49.70
2022-12-15T08:19:06.316Z,47.60
2022-12-15T08:21:34.703Z,46.87
2022-12-15T08:24:02.731Z,51.67
2022-12-15T08:26:31.674Z,56.67
2022-12-15T08:29:40.602Z,49.30
2022-12-15T08:31:54.101Z,44.13
2022-12-15T08:34:22.220Z,50.13
2022-12-15T08:36:50.191Z,48.43
2022-12-15T08:39:18.192Z,48.07
2022-12-15T08:41:46.153Z,52.70
2022-12-15T08:44:14.021Z,53.13
2022-12-15T08:46:41.914Z,50.20
2022-12-15T08:49:15.243Z,48.13
2022-12-15T08:51:45.857Z,56.37
2022-12-15T08:54:20.263Z,54.77
2022-12-15T08:56:48.159Z,57.80
2022-12-15T08:59:16.304Z,56.30
2022-12-15T09:01:44.357Z,53.60
2022-12-15T09:04:13.657Z,60.83
2022-12-15T09:06:41.708Z,55.20
2022-12-15T09:09:12.486Z,48.43
2022-12-15T09:11:41.082Z,51.80
2022-12-15T09:14:08.966Z,56.87
2022-12-15T09:16:36.948Z,51.40
2022-12-15T09:19:05.155Z,54.30
2022-12-15T09:21:34.385Z,56.87
2022-12-15T09:24:03.351Z,56.43
2022-12-15T09:26:33.818Z,54.97
2022-12-15T09:29:02.779Z,58.77
2022-12-15T09:31:33.438Z,54.00
2022-12-15T09:34:02.528Z,59.17
2022-12-15T09:36:32.593Z,56.30
2022-12-15T09:39:03.519Z,54.30
2022-12-15T09:41:33.489Z,61.93
2022-12-15T09:44:04.916Z,60.53
2022-12-15T09:46:43.166Z,55.83
2022-12-15T09:49:19.543Z,53.67
2022-12-15T09:51:52.680Z,47.40
2022-12-15T09:54:23.189Z,61.97
2022-12-15T09:56:55.910Z,53.93
2022-12-15T09:59:32.302Z,64.63
2022-12-15T10:02:18.736Z,54.47
2022-12-15T10:04:55.693Z,58.90
2022-12-15T10:07:31.089Z,52.17
2022-12-15T10:10:00.390Z,58.90
2022-12-15T10:12:34.195Z,66.17
2022-12-15T10:15:11.572Z,60.10
2022-12-15T10:17:48.523Z,57.30
2022-12-15T10:20:21.359Z,59.77
2022-12-15T10:22:50.467Z,50.23
2022-12-15T10:25:29.701Z,53.53
2022-12-15T10:28:11.979Z,59.00
2022-12-15T10:30:46.888Z,55.00
2022-12-15T10:33:20.265Z,54.07
2022-12-15T10:35:48.938Z,58.40
2022-12-15T10:38:25.386Z,56.77
2022-12-15T10:40:56.696Z,51.87
2022-12-15T10:43:30.523Z,57.37
2022-12-15T10:46:04.407Z,60.23
2022-12-15T10:48:32.511Z,59.53
2022-12-15T10:51:20.189Z,62.73
2022-12-15T10:53:50.589Z,61.67
2022-12-15T10:56:28.802Z,58.30
2022-12-15T10:59:00.677Z,60.90
2022-12-15T11:01:30.218Z,58.67
2022-12-15T11:03:58.777Z,50.60
2022-12-15T11:06:28.345Z,57.87
2022-12-15T11:08:58.570Z,77.17
2022-12-15T11:11:50.265Z,56.67
2022-12-15T11:14:23.493Z,63.00
2022-12-15T11:16:54.407Z,60.17
2022-12-15T11:19:31.507Z,61.27
2022-12-15T11:22:05.857Z,59.83
2022-12-15T11:24:39.670Z,58.00
2022-12-15T11:27:15.434Z,59.10
2022-12-15T11:29:55.805Z,75.07
2022-12-15T11:32:26.831Z,60.83
2022-12-15T11:34:55.180Z,59.77
2022-12-15T11:37:37.779Z,63.93
2022-12-15T11:40:29.557Z,62.50
2022-12-15T11:43:15.365Z,60.37
2022-12-15T11:45:52.134Z,57.80
2022-12-15T11:48:22.720Z,61.63
2022-12-15T11:50:57.147Z,61.17
2022-12-15T11:53:44.939Z,57.30
2022-12-15T11:56:21.551Z,54.50
2022-12-15T11:59:09.679Z,58.40
2022-12-15T12:02:00.769Z,60.43
2022-12-15T12:04:38.042Z,66.27
2022-12-15T12:07:15.996Z,56.87
2022-12-15T12:09:56.287Z,62.30
2022-12-15T12:12:30.828Z,66.30
2022-12-15T12:15:16.477Z,57.60
2022-12-15T12:17:49.015Z,69.03
2022-12-15T12:20:20.913Z,70.53
2022-12-15T12:23:02.279Z,63.13
2022-12-15T12:25:34.328Z,60.90
2022-12-15T12:28:06.531Z,60.40
2022-12-15T12:30:43.575Z,59.60
2022-12-15T12:33:26.084Z,72.40
2022-12-15T12:35:58.885Z,62.07
2022-12-15T12:38:36.084Z,64.50
2022-12-15T12:41:08.960Z,65.90
2022-12-15T12:43:39.069Z,62.40
2022-12-15T12:46:16.985Z,58.20
2022-12-15T12:48:50.449Z,68.57
2022-12-15T12:51:25.746Z,58.90
2022-12-15T12:53:54.138Z,60.70
2022-12-15T12:56:36.230Z,63.93
2022-12-15T12:59:08.705Z,61.33
2022-12-15T13:01:38.946Z,60.07
2022-12-15T13:04:36.295Z,67.93
2022-12-15T13:07:27.044Z,64.17
2022-12-15T13:10:13.646Z,57.40
2022-12-15T13:12:52.943Z,59.47
2022-12-15T13:15:36.060Z,62.17
2022-12-15T13:18:07.762Z,63.47
2022-12-15T13:20:38.171Z,66.73
2022-12-15T13:23:41.338Z,67.23
2022-12-15T13:26:19.350Z,57.60
2022-12-15T13:28:51.585Z,56.03
2022-12-15T13:31:44.196Z,63.60
2022-12-15T13:34:21.578Z,61.47
2022-12-15T13:36:58.087Z,68.50
2022-12-15T13:39:58.391Z,63.80
2022-12-15T13:42:45.325Z,65.13
2022-12-15T13:45:51.810Z,61.20
2022-12-15T13:48:27.615Z,56.20
2022-12-15T13:51:03.523Z,63.97
2022-12-15T13:53:38.934Z,62.87
2022-12-15T13:56:39.952Z,64.40
2022-12-15T13:59:16.392Z,61.70
2022-12-15T14:01:50.899Z,62.03
2022-12-15T14:04:20.620Z,59.97
2022-12-15T14:06:51.461Z,55.70
2022-12-15T14:09:24.008Z,58.00
2022-12-15T14:11:54.315Z,63.03
2022-12-15T14:14:25.592Z,62.43
2022-12-15T14:17:02.490Z,55.93
2022-12-15T14:19:41.722Z,57.90
2022-12-15T14:22:28.744Z,65.10
2022-12-15T14:25:03.394Z,67.40
2022-12-15T14:27:34.506Z,66.17
2022-12-15T14:30:29.230Z,62.40
2022-12-15T14:33:00.643Z,73.73
2022-12-15T14:35:32.243Z,71.37
2022-12-15T14:38:02.796Z,71.60
2022-12-15T14:40:31.831Z,71.77
2022-12-15T14:43:01.408Z,76.80
2022-12-15T14:45:32.868Z,75.90
2022-12-15T14:48:40.144Z,74.30
2022-12-15T14:50:55.848Z,71.43
2022-12-15T14:53:31.917Z,71.67
2022-12-15T14:56:12.683Z,72.77
2022-12-15T14:58:42.681Z,78.60
2022-12-15T15:01:26.007Z,81.67
2022-12-15T15:04:01.930Z,72.23
2022-12-15T15:06:34.104Z,68.30
2022-12-15T15:09:14.035Z,73.67
2022-12-15T15:11:43.665Z,67.53
2022-12-15T15:14:18.254Z,77.43
2022-12-15T15:16:46.796Z,80.17
2022-12-15T15:19:21.830Z,72.97
2022-12-15T15:21:50.474Z,79.63
2022-12-15T15:24:24.865Z,74.67
2022-12-15T15:26:53.360Z,77.33
2022-12-15T15:29:40.971Z,78.60
2022-12-15T15:32:16.880Z,82.40
2022-12-15T15:34:47.042Z,80.30
2022-12-15T15:37:19.498Z,81.77
2022-12-15T15:39:49.456Z,80.57
2022-12-15T15:42:17.526Z,72.10
2022-12-15T15:44:46.737Z,79.80
2022-12-15T15:47:22.128Z,71.80
2022-12-15T15:49:50.681Z,84.70
2022-12-15T15:52:18.583Z,83.47
2022-12-15T15:54:47.107Z,77.37
2022-12-15T15:57:16.257Z,77.77
2022-12-15T15:59:44.585Z,76.83
2022-12-15T16:02:15.612Z,75.77
2022-12-15T16:04:45.624Z,68.43
2022-12-15T16:07:20.304Z,72.37
2022-12-15T16:09:48.186Z,74.03
2022-12-15T16:12:27.473Z,78.23
2022-12-15T16:14:55.929Z,79.63
2022-12-15T16:17:25.459Z,75.47
2022-12-15T16:19:53.344Z,75.60
2022-12-15T16:22:22.920Z,71.07
2022-12-15T16:24:50.781Z,79.23
2022-12-15T16:27:18.670Z,79.80
2022-12-15T16:29:46.515Z,67.03
2022-12-15T16:32:14.331Z,69.83
2022-12-15T16:34:43.514Z,67.10
2022-12-15T16:37:25.614Z,76.00
2022-12-15T16:39:53.548Z,73.00
2022-12-15T16:42:21.389Z,81.87
2022-12-15T16:44:49.192Z,77.33
2022-12-15T16:47:17.110Z,82.17
2022-12-15T16:49:46.275Z,72.60
2022-12-15T16:52:20.563Z,80.23
2022-12-15T16:54:50.036Z,80.47
2022-12-15T16:57:18.417Z,80.70
2022-12-15T16:59:46.297Z,73.13
2022-12-15T17:02:27.091Z,76.23
2022-12-15T17:04:56.649Z,83.70
2022-12-15T17:07:26.121Z,74.90
2022-12-15T17:09:54.017Z,71.87
2022-12-15T17:12:21.868Z,75.13
2022-12-15T17:14:49.728Z,75.27
2022-12-15T17:17:19.857Z,82.60
2022-12-15T17:20:19.672Z,73.90
2022-12-15T17:22:38.738Z,78.53
2022-12-15T17:25:10.891Z,73.20
2022-12-15T17:27:38.816Z,70.70
2022-12-15T17:30:11.874Z,68.60
2022-12-15T17:32:39.776Z,69.90
2022-12-15T17:35:08.386Z,84.23
2022-12-15T17:37:36.252Z,74.13
2022-12-15T17:40:15.552Z,78.77
2022-12-15T17:42:43.696Z,69.93
2022-12-15T17:45:17.005Z,70.30
2022-12-15T17:47:45.123Z,72.37
2022-12-15T17:50:14.418Z,74.53
2022-12-15T17:52:43.835Z,73.03
2022-12-15T17:55:23.473Z,83.83
2022-12-15T17:57:51.853Z,75.37
2022-12-15T18:00:23.924Z,73.83
2022-12-15T18:02:51.942Z,73.83
2022-12-15T18:05:21.150Z,70.33
2022-12-15T18:07:52.033Z,72.10
2022-12-15T18:10:31.098Z,73.57
2022-12-15T18:12:59.724Z,71.20
2022-12-15T18:15:29.682Z,66.93
2022-12-15T18:17:58.113Z,67.33
2022-12-15T18:20:26.704Z,68.87
2022-12-15T18:22:55.814Z,66.67
2022-12-15T18:25:26.246Z,77.00
2022-12-15T18:27:56.302Z,74.40
2022-12-15T18:30:25.912Z,69.03
2022-12-15T18:32:57.415Z,66.70
2022-12-15T18:35:30.198Z,73.03
2022-12-15T18:37:58.035Z,65.67
2022-12-15T18:40:29.732Z,66.80
2022-12-15T18:42:58.917Z,59.20
2022-12-15T18:45:28.415Z,62.47
2022-12-15T18:47:56.334Z,61.67
2022-12-15T18:50:26.241Z,57.70
2022-12-15T18:52:58.483Z,55.03
2022-12-15T18:55:28.661Z,63.90
2022-12-15T18:57:58.781Z,55.80
2022-12-15T19:00:28.486Z,59.90
2022-12-15T19:02:59.926Z,65.73
2022-12-15T19:05:29.483Z,65.63
2022-12-15T19:08:01.610Z,60.43
2022-12-15T19:10:32.753Z,58.87
2022-12-15T19:13:02.128Z,63.87
2022-12-15T19:15:30.179Z,61.53
2022-12-15T19:18:15.628Z,59.73
2022-12-15T19:21:01.483Z,57.37
2022-12-15T19:23:29.454Z,66.97
2022-12-15T19:25:57.666Z,55.30
2022-12-15T19:28:26.815Z,49.23
2022-12-15T19:30:54.641Z,65.27
2022-12-15T19:33:23.424Z,53.50
2022-12-15T19:35:54.788Z,78.53
2022-12-15T19:38:25.858Z,57.67
2022-12-15T19:40:55.084Z,62.83
2022-12-15T19:43:24.279Z,64.37
2022-12-15T19:45:53.940Z,59.87
2022-12-15T19:48:24.143Z,61.43
2022-12-15T19:50:54.774Z,59.87
2022-12-15T19:53:26.250Z,52.70
2022-12-15T19:55:55.743Z,55.40
2022-12-15T19:58:28.497Z,56.83
2022-12-15T20:01:01.020Z,59.77
2022-12-15T20:03:30.888Z,56.33
2022-12-15T20:06:00.620Z,51.70
2022-12-15T20:08:30.396Z,57.53
2022-12-15T20:10:58.280Z,58.67
2022-12-15T20:13:26.948Z,62.90
2022-12-15T20:15:55.147Z,56.30
2022-12-15T20:18:26.559Z,67.70
2022-12-15T20:20:55.517Z,54.97
2022-12-15T20:23:26.798Z,54.60
2022-12-15T20:25:55.798Z,60.00
2022-12-15T20:28:25.428Z,64.13
2022-12-15T20:30:53.899Z,64.73
2022-12-15T20:33:21.980Z,63.47
2022-12-15T20:35:52.070Z,59.00
2022-12-15T20:38:28.058Z,58.10
2022-12-15T20:40:57.111Z,57.77
2022-12-15T20:43:26.596Z,58.93
2022-12-15T20:46:01.573Z,58.00
2022-12-15T20:48:30.979Z,59.80
2022-12-15T20:51:03.028Z,59.30
2022-12-15T20:53:34.161Z,62.67
2022-12-15T20:56:02.347Z,57.23
2022-12-15T20:58:33.392Z,56.17
2022-12-15T21:01:01.908Z,63.33
2022-12-15T21:03:33.935Z,62.07
2022-12-15T21:06:03.437Z,57.10
2022-12-15T21:08:32.763Z,60.03
2022-12-15T21:11:05.664Z,55.57
2022-12-15T21:13:35.395Z,63.13
2022-12-15T21:16:03.521Z,59.73
2022-12-15T21:21:25.905Z,58.33
2022-12-15T21:23:54.221Z,63.83
2022-12-15T21:26:24.557Z,55.43
2022-12-15T21:28:55.699Z,62.83
2022-12-15T21:31:24.707Z,59.53
2022-12-15T21:33:52.851Z,62.60
2022-12-15T21:36:24.042Z,60.77
2022-12-15T21:38:53.225Z,60.60
2022-12-15T21:41:24.183Z,60.03
2022-12-15T21:43:52.117Z,56.27
2022-12-15T21:46:26.102Z,55.70
2022-12-15T21:49:13.312Z,50.93
2022-12-15T21:51:44.854Z,53.10
2022-12-15T21:54:18.330Z,56.43
2022-12-15T21:56:47.383Z,55.47
2022-12-15T21:59:16.768Z,57.43
2022-12-15T22:01:45.029Z,50.37
2022-12-15T22:04:18.743Z,46.63
2022-12-15T22:06:50.915Z,57.40
2022-12-15T22:09:19.612Z,53.20
2022-12-15T22:11:49.524Z,50.63
2022-12-15T22:14:24.592Z,46.90
2022-12-15T22:16:52.545Z,48.53
2022-12-15T22:19:20.833Z,48.57
2022-12-15T22:21:50.116Z,50.73
2022-12-15T22:24:17.937Z,55.70
2022-12-15T22:26:46.421Z,50.27
2022-12-15T22:29:18.073Z,56.00
2022-12-15T22:31:45.963Z,58.20
2022-12-15T22:34:15.678Z,57.07
2022-12-15T22:36:43.526Z,62.03
2022-12-15T22:39:14.763Z,56.33
2022-12-15T22:41:45.142Z,52.87
2022-12-15T22:44:18.552Z,60.23
2022-12-15T22:46:47.250Z,53.50
2022-12-15T22:49:17.015Z,58.37
2022-12-15T22:51:45.322Z,54.77
2022-12-15T22:54:20.144Z,46.47
2022-12-15T22:56:50.315Z,52.77
2022-12-15T22:59:22.063Z,53.93
2022-12-15T23:01:49.974Z,51.67
2022-12-15T23:04:18.040Z,53.80
2022-12-15T23:06:46.219Z,46.33
2022-12-15T23:09:14.035Z,56.17
2022-12-15T23:11:42.448Z,53.87
2022-12-15T23:14:14.498Z,60.23
2022-12-15T23:16:42.077Z,49.17
2022-12-15T23:19:23.373Z,58.27
2022-12-15T23:21:51.468Z,54.13
2022-12-15T23:24:19.609Z,45.20
2022-12-15T23:26:48.777Z,46.87
2022-12-15T23:29:16.712Z,53.50
2022-12-15T23:31:44.574Z,51.90
2022-12-15T23:34:12.593Z,53.60
2022-12-15T23:36:40.439Z,51.87
2022-12-15T23:39:08.239Z,56.40
2022-12-15T23:41:36.480Z,51.13
2022-12-15T23:44:05.934Z,58.40
2022-12-15T23:46:33.801Z,46.83
2022-12-15T23:49:01.683Z,50.90
2022-12-15T23:51:29.511Z,52.43
2022-12-15T23:53:57.310Z,44.37
2022-12-15T23:56:26.000Z,48.80
2022-12-15T23:58:57.196Z,56.83
